ADDS METAR Data INFO
IDs: Format: Raw Decoded Include TAF

Data at: 1200 UTC 21 Jun 2018

KDCA 211152Z 26004KT 10SM FEW012 BKN038 BKN140 24/21 A2977 RMK AO2 SLP082 70013 T02440211 10244 20222 51013
KDCA 211052Z 19003KT 10SM FEW008 BKN043 BKN150 23/21 A2976 RMK AO2 SLP078 T02330211
KDCA 210952Z 22004KT 10SM FEW008 BKN045 BKN150 23/21 A2975 RMK AO2 SLP074 T02280206
KDCA 210852Z 20004KT 10SM BKN150 23/21 A2974 RMK AO2 SLP069 T02280206 56015
KDCA 210752Z 00000KT 10SM BKN160 23/21 A2974 RMK AO2 SLP069 T02280206
KDCA 210652Z 21003KT 10SM FEW008 SCT120 OVC200 23/21 A2975 RMK AO2 SLP074 T02280206
KDCA 210616Z 20004KT 10SM FEW008 BKN100 BKN120 OVC200 23/21 A2977 RMK AO2 T02280206
KDCA 210552Z 24005KT 10SM FEW040 SCT095 OVC200 23/21 A2978 RMK AO2 SLP084 60012 T02280206 10272 20228 56006
KDCA 210452Z 26006KT 10SM FEW100 OVC150 23/21 A2979 RMK AO2 SLP088 T02330206 403000228
KDCA 210352Z 00000KT 10SM FEW100 OVC150 23/21 A2978 RMK AO2 RAB09E49 SLP084 P0000 T02330206
KDCA 210252Z 25005KT 10SM FEW034 BKN120 OVC250 23/21 A2980 RMK AO2 LTG DSNT SW RAE22 SLP090 P0001 60012 T02330206 56006
KDCA 210152Z 21005KT 10SM -RA FEW034 BKN095 BKN130 OVC250 23/21 A2980 RMK AO2 LTG DSNT W AND NW SLP090 P0007 T02330206
KDCA 210052Z 30005KT 7SM RA BKN030 BKN095 BKN130 OVC230 23/20 A2979 RMK AO2 LTG DSNT N AND NW RAB2359 SLP088 P0004 T02330200
KDCA 202352Z 27010KT 10SM BKN030 BKN095 BKN130 OVC230 27/21 A2982 RMK AO2 SLP096 60001 T02720211 10300 20267 53015
KDCA 202252Z 00000KT 10SM FEW032 SCT041 BKN055 BKN130 OVC230 27/22 A2977 RMK AO2 LTG DSNT E RAE2158B04E44 TSB2154E42 SLP081 P0001 T02720217
KDCA 202243Z 16003KT 10SM -RA SCT036 BKN110 OVC230 27/21 A2977 RMK AO2 LTG DSNT E-S RAE2158B04 TSB2154E42 P0001 T02720211
KDCA 202200Z 17003KT 10SM TS SCT036 BKN110 OVC230 27/20 A2976 RMK AO2 LTG DSNT ALQDS RAE2158 TSB2154 P0000 T02720200
KDCA 202152Z 20004KT 10SM VCTS -RA SCT036 BKN110 OVC230 27/20 A2977 RMK AO2 LTG DSNT SE-W SLP081 P0000 T02720200
KDCA 202150Z 20004KT 10SM VCTS -RA SCT038 BKN100 BKN120 OVC230 27/20 A2977 RMK AO2 LTG DSNT SE-W P0000
KDCA 202052Z 19004KT 10SM -RA FEW035 SCT075 BKN110 OVC230 28/19 A2979 RMK AO2 LTG DSNT S-W RAB52 SLP089 P0000 60000 T02780194 56017
KDCA 201952Z 18004KT 10SM FEW035 SCT060 BKN160 OVC230 28/17 A2980 RMK AO2 SLP092 T02830167
KDCA 201852Z 16004KT 10SM SCT065 BKN095 BKN160 29/16 A2983 RMK AO2 SLP100 T02890156
KDCA 201752Z 17006KT 10SM FEW050 BKN095 BKN160 29/18 A2984 RMK AO2 SLP105 T02890183 10289 20244 58013
KDCA 201652Z 17006KT 10SM FEW045 SCT080 OVC120 28/18 A2986 RMK AO2 SLP110 T02830178
KDCA 201552Z 17004KT 10SM SCT042 OVC080 27/18 A2988 RMK AO2 SLP118 T02720178
KDCA 201452Z 23005KT 10SM BKN075 27/17 A2988 RMK AO2 SLP118 T02720167 58005
KDCA 201352Z 00000KT 10SM BKN070 BKN250 26/16 A2989 RMK AO2 SLP121 T02610156
KDCA 201252Z 06005KT 10SM BKN070 BKN250 25/16 A2990 RMK AO2 SLP123 T02500156
KDCA 201152Z 03005KT 10SM BKN070 BKN250 24/14 A2990 RMK AO2 SLP123 70112 T02440144 10250 20233 52008
KDCA 201052Z 04006KT 10SM BKN070 BKN180 BKN250 24/14 A2989 RMK AO2 SLP121 T02390139
KDCA 200952Z 03006KT 10SM SCT060 BKN180 24/14 A2988 RMK AO2 SLP117 T02390139
KDCA 200852Z 02007KT 10SM SCT060 23/14 A2987 RMK AO2 SLP115 T02330144 50000
KDCA 200752Z 36004KT 10SM OVC060 24/16 A2987 RMK AO2 SLP116 T02440156
KDCA 200652Z 01005KT 10SM BKN060 OVC220 24/16 A2988 RMK AO2 SLP117 T02440156
KDCA 200552Z 35005KT 10SM FEW055 FEW140 SCT220 24/18 A2987 RMK AO2 SLP115 T02440183 10278 20244 58002
KDCA 200452Z 34006KT 10SM SCT220 25/19 A2988 RMK AO2 SLP117 T02500194 403500250
KDCA 200352Z 34005KT 10SM FEW150 SCT220 26/21 A2988 RMK AO2 SLP118 T02610206
KDCA 200252Z 01006KT 10SM OVC220 26/22 A2988 RMK AO2 SLP116 T02610222 50005
KDCA 200152Z 34004KT 10SM FEW075 BKN240 27/22 A2988 RMK AO2 SLP117 T02670217
KDCA 200052Z 32004KT 10SM CLR 27/20 A2987 RMK AO2 SLP115 T02720200